Time;durP1;ratioP1;P1;durP2;ratioP2;P2;SDS_P1;SDS_P2;PMS_P1;PMS_P2;Temp;Humidity;BMP_temperature;BMP_pressure;BME280_temperature;BME280_humidity;BME280_pressure;Samples;Min_cycle;Max_cycle;Signal;HPM_P1;HPM_P2
2023/05/20 09:00:58;;;;;;;0.80;0.80;;;17.20;99.90;;;;;;5085602;28;20276;-64
2023/05/20 09:03:25;;;;;;;0.90;0.90;;;17.10;99.90;;;;;;5083206;28;20201;-64
2023/05/20 09:05:53;;;;;;;1.43;1.30;;;17.10;99.90;;;;;;5089813;28;20229;-63
2023/05/20 09:08:25;;;;;;;1.40;1.30;;;17.10;99.90;;;;;;5093723;28;20438;-64
2023/05/20 09:10:53;;;;;;;0.93;0.93;;;17.10;99.90;;;;;;5087631;28;20205;-64
2023/05/20 09:13:21;;;;;;;1.13;1.10;;;17.20;99.90;;;;;;5090163;28;20196;-64
2023/05/20 09:15:48;;;;;;;1.20;1.10;;;17.20;99.90;;;;;;5091465;28;20202;-64
2023/05/20 09:18:16;;;;;;;2.07;1.20;;;17.30;99.90;;;;;;5095836;28;20207;-65
2023/05/20 09:20:47;;;;;;;1.63;1.50;;;17.30;99.90;;;;;;5097105;28;20671;-64
2023/05/20 09:23:14;;;;;;;1.17;1.03;;;17.30;99.90;;;;;;5071039;28;20207;-64
2023/05/20 09:25:41;;;;;;;1.10;1.00;;;17.40;99.90;;;;;;5096863;28;20203;-63
2023/05/20 09:28:10;;;;;;;1.10;1.00;;;17.40;99.90;;;;;;5090949;28;20205;-64
2023/05/20 09:30:37;;;;;;;1.52;1.42;;;17.50;99.90;;;;;;5087104;28;20248;-64
2023/05/20 09:33:06;;;;;;;0.80;0.80;;;17.50;99.90;;;;;;5095259;28;20194;-64
2023/05/20 09:35:37;;;;;;;1.80;1.23;;;17.50;99.90;;;;;;5087923;28;20205;-63
2023/05/20 09:38:06;;;;;;;3.20;1.88;;;17.50;99.90;;;;;;5090590;28;20760;-65
2023/05/20 09:40:36;;;;;;;10.20;2.07;;;17.50;99.90;;;;;;5087871;28;20217;-64
2023/05/20 09:43:05;;;;;;;11.77;1.70;;;17.60;99.90;;;;;;5099633;28;20729;-65
2023/05/20 09:45:32;;;;;;;2.85;1.25;;;17.70;99.90;;;;;;5085454;28;20226;-64
2023/05/20 09:48:01;;;;;;;2.42;1.40;;;17.80;99.90;;;;;;5088043;28;20263;-64
2023/05/20 09:50:29;;;;;;;1.23;1.13;;;17.90;99.90;;;;;;5090397;28;20666;-64
2023/05/20 09:53:02;;;;;;;1.38;1.15;;;17.90;99.90;;;;;;5074580;28;20223;-64
2023/05/20 09:55:30;;;;;;;1.40;1.00;;;17.80;99.90;;;;;;5096764;28;20234;-63
2023/05/20 09:58:01;;;;;;;1.25;1.15;;;17.80;99.90;;;;;;5098813;28;20677;-65
2023/05/20 10:00:28;;;;;;;1.17;1.08;;;17.70;99.80;;;;;;5083632;28;20260;-64
2023/05/20 10:02:56;;;;;;;1.88;1.25;;;17.70;99.80;;;;;;5094985;28;20282;-64
2023/05/20 10:05:27;;;;;;;0.93;0.93;;;17.60;99.80;;;;;;5095717;28;20267;-64
2023/05/20 10:08:38;;;;;;;1.77;1.20;;;17.50;99.80;;;;;;5074145;28;20265;-65
2023/05/20 10:11:15;;;;;;;1.10;1.10;;;17.50;99.90;;;;;;5076306;28;20816;-64
2023/05/20 10:14:00;;;;;;;1.13;1.10;;;17.40;99.80;;;;;;5075259;28;20310;-65
2023/05/20 10:16:37;;;;;;;1.88;1.10;;;17.30;99.80;;;;;;5064102;28;20222;-65
2023/05/20 10:19:14;;;;;;;1.03;1.03;;;17.30;99.90;;;;;;5079663;28;20211;-64
2023/05/20 10:21:41;;;;;;;0.80;0.80;;;17.20;99.90;;;;;;5059356;28;20269;-65
2023/05/20 10:24:11;;;;;;;2.77;1.03;;;17.20;99.90;;;;;;5061930;28;20223;-64
2023/05/20 10:31:02;;;;;;;1.30;1.20;;;17.10;99.90;;;;;;5066957;28;20176;-64
2023/05/20 10:33:41;;;;;;;0.90;0.90;;;17.00;99.90;;;;;;5067774;28;20600;-64
2023/05/20 10:36:08;;;;;;;1.70;1.60;;;17.00;99.90;;;;;;5076255;28;20271;-64
2023/05/20 10:38:35;;;;;;;1.40;1.30;;;16.90;99.90;;;;;;5060934;28;20209;-65
2023/05/20 10:44:46;;;;;;;1.07;1.00;;;16.90;99.90;;;;;;5064559;28;20180;-65
2023/05/20 10:51:02;;;;;;;1.07;1.00;;;16.80;99.90;;;;;;5076218;28;20208;-65
2023/05/20 10:53:39;;;;;;;1.33;1.10;;;16.90;99.90;;;;;;5076850;28;20202;-64
2023/05/20 10:56:16;;;;;;;2.73;1.00;;;16.90;99.90;;;;;;5067731;28;20649;-63
2023/05/20 10:58:44;;;;;;;1.23;0.80;;;16.90;99.90;;;;;;5084065;28;20260;-64
2023/05/20 11:01:13;;;;;;;0.93;0.93;;;16.90;99.90;;;;;;5073204;28;20200;-64
2023/05/20 11:03:41;;;;;;;1.13;1.02;;;16.90;99.90;;;;;;5072201;28;20685;-65
2023/05/20 11:06:12;;;;;;;1.07;1.00;;;17.00;99.90;;;;;;5056170;28;20758;-64
2023/05/20 11:08:39;;;;;;;1.00;1.00;;;17.00;99.90;;;;;;5078440;28;20204;-64
2023/05/20 11:11:06;;;;;;;1.37;1.10;;;17.00;99.90;;;;;;5048759;28;20200;-62
2023/05/20 11:13:36;;;;;;;1.03;0.90;;;17.10;99.90;;;;;;5051388;28;20239;-64
2023/05/20 11:16:04;;;;;;;1.00;1.00;;;17.20;99.90;;;;;;5077639;28;20216;-64
2023/05/20 11:18:33;;;;;;;0.90;0.90;;;17.30;99.90;;;;;;5074903;28;20197;-64
2023/05/20 11:21:01;;;;;;;1.97;0.97;;;17.30;99.90;;;;;;5081253;28;20200;-64
2023/05/20 11:23:29;;;;;;;0.77;0.77;;;17.40;99.90;;;;;;5060459;28;20270;-64
2023/05/20 11:25:59;;;;;;;1.10;1.00;;;17.50;99.90;;;;;;5076402;28;20207;-64
2023/05/20 11:28:26;;;;;;;1.35;1.00;;;17.50;99.90;;;;;;5073782;28;20199;-65
2023/05/20 11:30:53;;;;;;;0.80;0.80;;;17.60;99.90;;;;;;5074104;28;20211;-65
2023/05/20 11:33:21;;;;;;;1.25;1.15;;;17.70;99.90;;;;;;5072250;28;20554;-65
2023/05/20 11:35:53;;;;;;;1.37;1.27;;;17.80;99.80;;;;;;5056508;28;20602;-65
2023/05/20 11:38:21;;;;;;;0.90;0.90;;;17.90;99.70;;;;;;5073227;28;20191;-65
2023/05/20 11:40:52;;;;;;;1.30;1.20;;;17.90;99.60;;;;;;5069232;28;20551;-64
2023/05/20 11:43:20;;;;;;;0.80;0.80;;;18.00;99.60;;;;;;5074082;28;20278;-65
2023/05/20 11:45:52;;;;;;;1.58;1.10;;;18.00;99.50;;;;;;5071619;28;20291;-65
2023/05/20 11:48:19;;;;;;;1.00;1.00;;;18.00;99.50;;;;;;5069221;28;20297;-65
2023/05/20 11:50:49;;;;;;;1.03;0.90;;;18.10;99.50;;;;;;5080677;28;20653;-65
2023/05/20 11:53:17;;;;;;;1.43;1.00;;;18.10;99.40;;;;;;5084521;28;20212;-65
2023/05/20 11:55:46;;;;;;;1.05;0.93;;;18.10;99.40;;;;;;5076497;28;20317;-64
2023/05/20 11:58:16;;;;;;;0.80;0.80;;;18.10;99.30;;;;;;5079554;28;20228;-65
2023/05/20 12:00:43;;;;;;;1.20;0.90;;;18.10;99.30;;;;;;5071424;28;20219;-65
2023/05/20 12:03:11;;;;;;;1.25;1.00;;;18.10;99.30;;;;;;5077473;28;20200;-65
2023/05/20 12:05:38;;;;;;;1.02;1.02;;;18.10;99.30;;;;;;5075231;28;20639;-66
2023/05/20 12:08:07;;;;;;;2.00;1.20;;;18.10;99.30;;;;;;5082776;28;20211;-65
2023/05/20 12:10:36;;;;;;;1.33;1.08;;;18.00;99.30;;;;;;5073500;28;20196;-64
2023/05/20 12:13:07;;;;;;;0.80;0.80;;;18.00;99.40;;;;;;5070541;28;20197;-65
2023/05/20 12:15:34;;;;;;;2.53;1.30;;;17.90;99.30;;;;;;5072931;28;20191;-65
2023/05/20 12:18:03;;;;;;;1.03;1.03;;;17.90;99.30;;;;;;5055978;28;20387;-66
2023/05/20 12:20:33;;;;;;;0.95;0.95;;;17.90;99.30;;;;;;5067560;28;20207;-64
2023/05/20 12:23:01;;;;;;;0.80;0.80;;;17.90;99.40;;;;;;5055300;28;20204;-64
2023/05/20 12:25:30;;;;;;;0.70;0.70;;;17.90;99.40;;;;;;5079480;28;20212;-67
2023/05/20 12:28:02;;;;;;;1.00;1.00;;;18.00;99.40;;;;;;5076588;28;20257;-64
2023/05/20 12:30:31;;;;;;;1.00;1.00;;;18.10;99.30;;;;;;5068687;28;20283;-65
2023/05/20 12:32:58;;;;;;;2.53;0.90;;;18.10;99.20;;;;;;5077758;28;20671;-64
2023/05/20 12:35:41;;;;;;;0.95;0.85;;;18.20;99.10;;;;;;5077322;28;20194;-65
2023/05/20 12:38:09;;;;;;;0.93;0.80;;;18.30;99.00;;;;;;5055066;28;20552;-65
2023/05/20 12:40:37;;;;;;;0.98;0.98;;;18.30;98.90;;;;;;5077037;28;20673;-65
2023/05/20 12:43:05;;;;;;;0.90;0.90;;;17.80;98.60;;;;;;5074499;28;20204;-64
2023/05/20 12:45:32;;;;;;;0.70;0.70;;;18.40;98.90;;;;;;5075688;28;20200;-65
2023/05/20 12:48:00;;;;;;;0.60;0.60;;;18.40;98.70;;;;;;5076937;28;20203;-65
2023/05/20 12:50:27;;;;;;;1.55;0.88;;;18.50;98.70;;;;;;5049526;28;20208;-64
2023/05/20 12:52:54;;;;;;;0.83;0.83;;;18.50;98.50;;;;;;5080384;28;20310;-64
2023/05/20 12:55:22;;;;;;;0.90;0.90;;;18.50;98.40;;;;;;5076155;28;20225;-65
2023/05/20 12:57:51;;;;;;;0.70;0.70;;;18.60;98.40;;;;;;5070808;28;20206;-63
2023/05/20 13:00:18;;;;;;;1.05;0.90;;;18.50;98.40;;;;;;5073707;28;20653;-65
2023/05/20 13:02:45;;;;;;;0.70;0.70;;;18.60;98.30;;;;;;5071674;28;20203;-65
2023/05/20 13:05:13;;;;;;;1.38;1.20;;;18.60;98.20;;;;;;5068949;28;20277;-64
2023/05/20 13:07:40;;;;;;;1.42;1.08;;;18.50;98.10;;;;;;5073645;28;20208;-65
2023/05/20 13:10:10;;;;;;;0.95;0.95;;;18.50;98.20;;;;;;5066761;28;20228;-63
2023/05/20 13:12:37;;;;;;;1.08;1.00;;;18.50;98.10;;;;;;5069797;28;20208;-65
2023/05/20 13:15:07;;;;;;;1.25;1.15;;;18.40;98.10;;;;;;5071391;28;20206;-64
2023/05/20 13:17:35;;;;;;;0.98;0.98;;;18.40;98.10;;;;;;5061557;28;20257;-65
2023/05/20 13:20:02;;;;;;;0.80;0.80;;;18.40;98.10;;;;;;5061378;28;20204;-65
2023/05/20 13:22:32;;;;;;;1.92;1.20;;;18.30;98.00;;;;;;5072948;28;20296;-65
2023/05/20 13:24:59;;;;;;;1.23;1.17;;;18.30;97.90;;;;;;5066518;28;20205;-64
2023/05/20 13:27:26;;;;;;;0.98;0.93;;;18.30;97.90;;;;;;5071469;28;20187;-65
2023/05/20 13:29:53;;;;;;;1.00;1.00;;;18.30;97.80;;;;;;5078891;28;20200;-64
2023/05/20 13:32:21;;;;;;;0.90;0.90;;;18.30;97.80;;;;;;5058933;28;20292;-65
2023/05/20 13:34:49;;;;;;;1.10;1.10;;;18.40;97.70;;;;;;5079888;28;20196;-64
2023/05/20 13:37:16;;;;;;;1.83;0.90;;;18.40;97.60;;;;;;5081131;28;20639;-64
2023/05/20 13:39:43;;;;;;;1.02;0.90;;;18.50;97.60;;;;;;5064641;28;20293;-66
2023/05/20 13:42:10;;;;;;;1.00;1.00;;;18.50;97.50;;;;;;5070885;28;20303;-64
2023/05/20 13:44:37;;;;;;;1.10;0.80;;;18.60;97.50;;;;;;5078799;28;20337;-64
2023/05/20 13:47:05;;;;;;;0.80;0.80;;;18.60;97.40;;;;;;5077208;28;20205;-64
2023/05/20 13:49:33;;;;;;;0.80;0.80;;;18.60;97.30;;;;;;5069660;28;20192;-64
2023/05/20 13:52:00;;;;;;;0.80;0.80;;;18.70;97.20;;;;;;5081351;28;20200;-65
2023/05/20 13:54:27;;;;;;;0.70;0.70;;;18.70;97.10;;;;;;5053347;28;20192;-65
2023/05/20 13:56:55;;;;;;;0.80;0.80;;;18.70;97.00;;;;;;5076794;28;20236;-65
2023/05/20 13:59:22;;;;;;;1.42;0.90;;;18.70;97.00;;;;;;5074527;28;20200;-65
2023/05/20 14:01:53;;;;;;;0.93;0.93;;;18.80;97.00;;;;;;5069344;28;20556;-65
2023/05/20 14:04:21;;;;;;;0.77;0.77;;;18.80;96.90;;;;;;5079949;28;20193;-65
2023/05/20 14:06:49;;;;;;;1.35;0.98;;;18.90;96.80;;;;;;5078736;28;20213;-65
2023/05/20 14:09:16;;;;;;;0.73;0.73;;;19.00;96.80;;;;;;5078305;28;20208;-65
2023/05/20 14:11:43;;;;;;;0.90;0.90;;;19.10;96.70;;;;;;5083995;28;20197;-66
2023/05/20 14:14:10;;;;;;;0.70;0.70;;;19.10;96.70;;;;;;5074399;28;20520;-65
2023/05/20 14:16:38;;;;;;;0.88;0.88;;;19.20;96.60;;;;;;5081121;28;20201;-63
2023/05/20 14:19:05;;;;;;;1.30;1.02;;;19.20;96.60;;;;;;5083675;28;20240;-63
2023/05/20 14:21:32;;;;;;;0.77;0.77;;;19.30;96.50;;;;;;5077914;28;20224;-64
2023/05/20 14:24:01;;;;;;;0.90;0.90;;;19.30;96.50;;;;;;5060774;28;20202;-66
2023/05/20 14:26:28;;;;;;;0.80;0.80;;;19.40;96.40;;;;;;5078452;28;20196;-65
2023/05/20 14:28:55;;;;;;;1.00;1.00;;;19.40;96.70;;;;;;5084999;28;20219;-65
2023/05/20 14:31:22;;;;;;;0.90;0.90;;;19.30;96.30;;;;;;5060671;28;20618;-65
2023/05/20 14:33:49;;;;;;;1.25;1.15;;;19.20;96.30;;;;;;5072979;28;20291;-66
2023/05/20 14:36:16;;;;;;;1.83;1.58;;;19.10;96.30;;;;;;5059853;28;20205;-64
2023/05/20 14:38:44;;;;;;;1.40;1.10;;;19.00;96.40;;;;;;5072369;28;20657;-64
2023/05/20 14:41:12;;;;;;;1.17;0.90;;;19.00;96.50;;;;;;5074936;28;20201;-65
2023/05/20 14:43:39;;;;;;;10.43;1.50;;;19.00;96.50;;;;;;5071272;28;20212;-66
2023/05/20 14:46:07;;;;;;;1.30;1.20;;;18.90;96.50;;;;;;5072170;28;20691;-65
2023/05/20 14:48:34;;;;;;;1.00;1.00;;;18.80;96.50;;;;;;5081727;28;20254;-65
2023/05/20 14:51:04;;;;;;;1.25;1.15;;;18.70;97.00;;;;;;5071613;28;20266;-65
2023/05/20 14:53:31;;;;;;;1.00;1.00;;;18.70;96.70;;;;;;5057592;28;20201;-65
2023/05/20 14:55:59;;;;;;;1.00;1.00;;;18.70;96.80;;;;;;5081762;28;20233;-66
2023/05/20 14:58:27;;;;;;;0.95;0.95;;;18.60;96.80;;;;;;5075598;28;20216;-65
2023/05/20 15:00:55;;;;;;;1.77;1.20;;;19.20;97.00;;;;;;5074149;28;20682;-64
2023/05/20 15:03:23;;;;;;;1.20;1.10;;;18.60;96.70;;;;;;5067484;28;20207;-66
2023/05/20 15:05:50;;;;;;;1.38;1.27;;;18.60;96.60;;;;;;5075723;28;20264;-65
2023/05/20 15:08:17;;;;;;;1.40;1.30;;;18.60;96.60;;;;;;5070960;28;20190;-65
2023/05/20 15:10:44;;;;;;;1.00;1.00;;;18.60;96.50;;;;;;5049666;28;20526;-64
2023/05/20 15:13:14;;;;;;;1.10;1.10;;;18.70;96.50;;;;;;5084655;28;20196;-64
2023/05/20 15:15:43;;;;;;;1.42;1.20;;;18.60;96.40;;;;;;5054389;28;20197;-64
2023/05/20 15:18:10;;;;;;;1.08;1.05;;;18.60;96.40;;;;;;5078635;28;20695;-65
2023/05/20 15:20:37;;;;;;;1.35;1.25;;;18.60;96.30;;;;;;5080009;28;20205;-65
2023/05/20 15:23:04;;;;;;;1.15;1.05;;;18.60;96.30;;;;;;5080154;28;20200;-65
2023/05/20 15:25:32;;;;;;;2.55;1.45;;;18.60;96.30;;;;;;5079885;28;20285;-67
2023/05/20 15:27:59;;;;;;;1.30;1.20;;;18.60;96.30;;;;;;5056782;28;20296;-66
2023/05/20 15:30:26;;;;;;;1.15;1.15;;;18.60;96.30;;;;;;5069980;28;20715;-65
2023/05/20 15:32:55;;;;;;;2.05;1.10;;;18.60;96.40;;;;;;5070305;28;20619;-66
2023/05/20 15:35:23;;;;;;;1.60;1.50;;;18.60;96.50;;;;;;5067863;28;20207;-65
2023/05/20 15:37:50;;;;;;;1.40;1.30;;;18.60;96.30;;;;;;5081538;28;20220;-65
2023/05/20 15:40:17;;;;;;;1.10;1.10;;;18.60;96.30;;;;;;5080537;28;20200;-64
2023/05/20 15:42:44;;;;;;;4.05;1.20;;;18.60;96.60;;;;;;5069268;28;20676;-64
2023/05/20 15:45:11;;;;;;;1.10;1.10;;;18.60;96.30;;;;;;5074346;28;20200;-65
2023/05/20 15:47:39;;;;;;;1.50;1.40;;;18.60;96.40;;;;;;5078935;28;20193;-65
2023/05/20 15:50:10;;;;;;;1.10;1.10;;;18.60;96.30;;;;;;5082559;28;20228;-65
2023/05/20 15:52:38;;;;;;;1.10;1.00;;;18.60;96.20;;;;;;5071411;28;20544;-66
2023/05/20 15:55:06;;;;;;;1.02;0.93;;;18.50;96.20;;;;;;5074359;28;20241;-65
2023/05/20 15:57:33;;;;;;;0.90;0.90;;;18.50;96.20;;;;;;5070904;28;20533;-65
2023/05/20 16:00:03;;;;;;;0.90;0.90;;;18.40;96.20;;;;;;5068970;28;20201;-65
2023/05/20 16:02:32;;;;;;;0.85;0.85;;;18.40;96.30;;;;;;5073863;28;20210;-63
2023/05/20 16:04:59;;;;;;;1.58;1.25;;;18.40;96.40;;;;;;5073585;28;20309;-64
2023/05/20 16:07:27;;;;;;;0.97;0.97;;;18.30;96.30;;;;;;5072567;28;20185;-66
2023/05/20 16:09:55;;;;;;;2.58;1.20;;;18.40;96.40;;;;;;5071003;28;20234;-65
2023/05/20 16:12:31;;;;;;;0.80;0.80;;;18.30;96.40;;;;;;5073597;28;20300;-65
2023/05/20 16:14:59;;;;;;;1.00;1.00;;;18.10;96.30;;;;;;5076808;28;20192;-64
2023/05/20 16:17:26;;;;;;;2.47;0.90;;;18.40;96.40;;;;;;5068388;28;20205;-64
2023/05/20 16:19:53;;;;;;;1.55;1.30;;;18.30;96.30;;;;;;5076011;28;20188;-65
2023/05/20 16:22:20;;;;;;;1.45;1.35;;;18.30;96.30;;;;;;5081321;28;20204;-64
2023/05/20 16:24:49;;;;;;;1.33;1.23;;;18.30;96.20;;;;;;5076134;28;20284;-64
2023/05/20 16:27:16;;;;;;;1.90;1.50;;;18.20;96.30;;;;;;5080482;28;20200;-65
2023/05/20 16:29:46;;;;;;;1.50;1.40;;;18.10;96.40;;;;;;5072948;28;20265;-64
2023/05/20 16:32:13;;;;;;;1.13;1.13;;;18.10;96.40;;;;;;5075516;28;20201;-67
2023/05/20 16:34:40;;;;;;;1.23;1.23;;;18.00;96.40;;;;;;5077805;28;20204;-65
2023/05/20 16:37:08;;;;;;;1.38;1.27;;;18.00;96.50;;;;;;5072159;28;20223;-64
2023/05/20 16:39:36;;;;;;;1.20;1.10;;;17.90;96.60;;;;;;5075009;28;20269;-65
2023/05/20 16:42:04;;;;;;;1.42;1.30;;;17.90;96.60;;;;;;5082378;28;20580;-64
2023/05/20 16:44:37;;;;;;;1.48;1.23;;;17.80;96.60;;;;;;5067336;28;20200;-65
2023/05/20 16:47:04;;;;;;;1.30;1.20;;;17.80;96.60;;;;;;5080889;28;20204;-65
2023/05/20 16:49:32;;;;;;;1.35;1.25;;;17.80;96.60;;;;;;5082276;28;20195;-65
2023/05/20 16:51:59;;;;;;;0.97;0.97;;;17.70;96.70;;;;;;5064054;28;20203;-65
2023/05/20 16:54:27;;;;;;;0.80;0.80;;;17.70;96.80;;;;;;5054958;28;20201;-65
2023/05/20 16:56:54;;;;;;;1.45;0.90;;;17.70;96.80;;;;;;5067196;28;20683;-65
2023/05/20 16:59:23;;;;;;;1.75;1.17;;;17.70;96.80;;;;;;5069756;28;20233;-66
2023/05/20 17:01:53;;;;;;;1.00;1.00;;;17.60;96.80;;;;;;5081257;28;20264;-65
2023/05/20 17:04:20;;;;;;;2.45;0.70;;;17.60;96.80;;;;;;5072972;28;20220;-66
2023/05/20 17:06:48;;;;;;;0.70;0.70;;;17.60;96.80;;;;;;5071562;28;20710;-65
2023/05/20 17:09:16;;;;;;;0.70;0.70;;;17.60;96.80;;;;;;5077347;28;20204;-65
2023/05/20 17:11:43;;;;;;;0.60;0.60;;;17.60;96.80;;;;;;5071902;28;20228;-65
2023/05/20 17:14:10;;;;;;;0.82;0.82;;;17.60;96.90;;;;;;5069253;28;20193;-66
2023/05/20 17:16:39;;;;;;;0.90;0.90;;;17.60;96.80;;;;;;5065086;28;20197;-65
2023/05/20 17:19:06;;;;;;;0.68;0.68;;;17.60;96.90;;;;;;5054658;28;20496;-66
2023/05/20 17:21:35;;;;;;;0.80;0.80;;;17.50;96.80;;;;;;5075521;28;20242;-65
2023/05/20 17:24:02;;;;;;;0.93;0.70;;;17.50;96.80;;;;;;5076485;28;20713;-65
2023/05/20 17:26:29;;;;;;;0.63;0.63;;;17.60;96.90;;;;;;5051239;28;20591;-64
2023/05/20 17:28:56;;;;;;;0.50;0.50;;;17.60;96.80;;;;;;5080618;28;20203;-65
2023/05/20 17:31:23;;;;;;;2.42;0.70;;;17.60;96.80;;;;;;5072350;28;20285;-65
2023/05/20 17:33:55;;;;;;;0.60;0.60;;;17.60;96.80;;;;;;5071858;28;20204;-65
2023/05/20 17:36:22;;;;;;;0.60;0.60;;;17.60;96.80;;;;;;5080601;28;20446;-65
2023/05/20 17:38:49;;;;;;;0.60;0.60;;;17.60;96.80;;;;;;5073609;28;20208;-65
2023/05/20 17:41:17;;;;;;;0.73;0.73;;;17.60;96.80;;;;;;5086867;28;20241;-64
2023/05/20 17:43:45;;;;;;;0.80;0.80;;;17.60;97.10;;;;;;5060435;28;20212;-65
2023/05/20 17:46:12;;;;;;;0.70;0.70;;;17.60;96.80;;;;;;5069464;28;20236;-64
2023/05/20 17:48:40;;;;;;;0.70;0.70;;;17.60;96.80;;;;;;5079171;28;20539;-65
2023/05/20 17:51:08;;;;;;;0.80;0.80;;;17.60;96.80;;;;;;5086999;28;20754;-65
2023/05/20 17:53:35;;;;;;;0.90;0.90;;;17.50;96.80;;;;;;5079160;28;20653;-65
2023/05/20 17:56:03;;;;;;;0.70;0.70;;;17.50;96.80;;;;;;5078844;28;20232;-65
2023/05/20 17:58:32;;;;;;;0.83;0.83;;;17.50;96.80;;;;;;5085971;28;20212;-64
2023/05/20 18:01:00;;;;;;;0.80;0.80;;;17.50;96.80;;;;;;5085725;28;20204;-64
2023/05/20 18:03:27;;;;;;;0.90;0.90;;;17.50;96.80;;;;;;5059298;28;21268;-65
2023/05/20 18:05:55;;;;;;;1.58;1.10;;;17.50;96.80;;;;;;5063510;28;20208;-64
2023/05/20 18:08:24;;;;;;;4.18;0.90;;;17.50;96.80;;;;;;5089131;28;20196;-65
2023/05/20 18:10:51;;;;;;;1.10;1.00;;;17.50;96.80;;;;;;5082116;28;20199;-65
2023/05/20 18:13:18;;;;;;;0.90;0.90;;;17.50;96.80;;;;;;5080838;28;20567;-64
2023/05/20 18:15:45;;;;;;;1.42;1.02;;;17.40;96.80;;;;;;5085612;28;20201;-65
2023/05/20 18:18:12;;;;;;;1.00;1.00;;;17.40;96.80;;;;;;5086139;28;20716;-65
2023/05/20 18:20:40;;;;;;;2.50;0.80;;;17.40;96.90;;;;;;5082407;28;20948;-65
2023/05/20 18:23:07;;;;;;;1.55;0.95;;;17.40;96.80;;;;;;5083419;28;20575;-65
2023/05/20 18:25:35;;;;;;;0.95;0.95;;;17.40;96.80;;;;;;5082725;28;20211;-66
2023/05/20 18:28:03;;;;;;;1.08;1.00;;;17.30;96.80;;;;;;5081247;28;20658;-66
2023/05/20 18:30:30;;;;;;;1.10;1.00;;;17.30;96.80;;;;;;5084160;28;20218;-65
2023/05/20 18:32:57;;;;;;;0.85;0.85;;;17.30;96.80;;;;;;5078189;28;20200;-65
2023/05/20 18:35:25;;;;;;;0.82;0.82;;;17.30;96.90;;;;;;5070686;28;20731;-65
2023/05/20 18:37:52;;;;;;;0.88;0.88;;;17.30;97.00;;;;;;5077817;28;20404;-64
2023/05/20 18:40:20;;;;;;;0.90;0.90;;;17.30;97.00;;;;;;5077602;28;20388;-65
2023/05/20 18:42:48;;;;;;;0.77;0.77;;;17.30;97.00;;;;;;5084231;28;20235;-65
2023/05/20 18:45:15;;;;;;;0.67;0.67;;;17.30;97.00;;;;;;5087006;28;20449;-65
2023/05/20 18:47:43;;;;;;;2.40;0.70;;;17.30;97.00;;;;;;5083497;28;20196;-65
2023/05/20 18:50:11;;;;;;;0.73;0.70;;;17.30;97.10;;;;;;5084993;28;20226;-66
2023/05/20 18:52:41;;;;;;;0.70;0.70;;;17.20;97.00;;;;;;5085233;28;22423;-65
2023/05/20 18:55:09;;;;;;;0.70;0.70;;;17.20;97.00;;;;;;5081612;28;20204;-66
2023/05/20 18:57:37;;;;;;;1.38;1.17;;;17.20;97.10;;;;;;5076006;28;20306;-65
2023/05/20 19:00:10;;;;;;;1.20;0.95;;;17.20;97.10;;;;;;5075389;28;20762;-65
2023/05/20 19:02:38;;;;;;;1.30;1.20;;;17.20;97.10;;;;;;5083800;28;20203;-65
2023/05/20 19:05:07;;;;;;;2.00;1.53;;;17.20;97.10;;;;;;5080646;28;20260;-66
2023/05/20 19:07:34;;;;;;;1.60;1.50;;;17.20;97.10;;;;;;5076592;28;20220;-65
2023/05/20 19:10:02;;;;;;;3.03;1.80;;;17.20;97.20;;;;;;5082880;28;20194;-65
2023/05/20 19:12:29;;;;;;;2.63;1.90;;;17.20;97.20;;;;;;5081239;28;20206;-65
2023/05/20 19:14:56;;;;;;;2.22;2.10;;;17.10;97.10;;;;;;5051745;28;20374;-64
2023/05/20 19:17:28;;;;;;;1.73;1.63;;;17.10;97.20;;;;;;5064414;28;20197;-64
2023/05/20 19:19:55;;;;;;;2.00;1.80;;;17.10;97.20;;;;;;5076017;28;20215;-64
2023/05/20 19:22:22;;;;;;;1.50;1.37;;;17.10;97.20;;;;;;5076715;28;20299;-64
2023/05/20 19:24:49;;;;;;;1.67;1.57;;;17.10;97.10;;;;;;5074192;28;20199;-64
2023/05/20 19:27:17;;;;;;;1.63;1.53;;;17.10;97.10;;;;;;5071214;28;20200;-65
2023/05/20 19:29:44;;;;;;;1.27;1.23;;;17.10;97.10;;;;;;5079017;28;20283;-65
2023/05/20 19:32:11;;;;;;;1.30;1.20;;;17.00;97.10;;;;;;5079107;28;20195;-65
2023/05/20 19:34:40;;;;;;;1.05;1.05;;;17.10;97.10;;;;;;5070785;28;20215;-65
2023/05/20 19:37:07;;;;;;;1.10;1.00;;;17.10;97.10;;;;;;5080915;28;20226;-65
2023/05/20 19:39:34;;;;;;;1.02;0.85;;;17.10;97.10;;;;;;5072561;28;20212;-66
2023/05/20 19:42:01;;;;;;;0.80;0.80;;;17.10;97.20;;;;;;5073584;28;20204;-64
2023/05/20 19:44:28;;;;;;;1.00;1.00;;;17.10;97.20;;;;;;5083334;28;20211;-65
2023/05/20 19:46:56;;;;;;;0.70;0.70;;;17.10;97.20;;;;;;5077324;28;20215;-65
2023/05/20 19:49:23;;;;;;;0.80;0.80;;;17.10;97.20;;;;;;5072371;28;20232;-64
2023/05/20 19:51:52;;;;;;;0.83;0.83;;;17.10;97.20;;;;;;5079189;28;20198;-64
2023/05/20 19:54:19;;;;;;;1.30;0.90;;;17.10;97.20;;;;;;5067373;28;20293;-64
2023/05/20 19:56:46;;;;;;;1.33;0.90;;;17.10;97.20;;;;;;5051096;28;20556;-64
2023/05/20 19:59:13;;;;;;;1.57;1.00;;;17.00;97.20;;;;;;5054590;28;20207;-65
2023/05/20 20:01:41;;;;;;;0.97;0.97;;;17.00;97.30;;;;;;5058652;28;20216;-65
2023/05/20 20:04:08;;;;;;;0.80;0.80;;;17.00;97.30;;;;;;5061602;28;20216;-64
2023/05/20 20:06:35;;;;;;;0.70;0.70;;;17.00;97.30;;;;;;5056404;28;20203;-65
2023/05/20 20:09:04;;;;;;;0.70;0.70;;;17.00;97.40;;;;;;5058021;28;20208;-65
2023/05/20 20:11:31;;;;;;;1.27;0.75;;;17.00;97.40;;;;;;5054696;28;20200;-64
2023/05/20 20:13:59;;;;;;;0.83;0.70;;;16.90;97.40;;;;;;5052193;28;21004;-66
2023/05/20 20:16:26;;;;;;;0.97;0.90;;;16.90;97.40;;;;;;5052847;28;20307;-65
2023/05/20 20:18:54;;;;;;;2.00;1.00;;;16.90;97.40;;;;;;5055873;28;20301;-65
2023/05/20 20:21:24;;;;;;;2.03;1.00;;;16.90;97.40;;;;;;5060607;28;20479;-67
2023/05/20 20:23:54;;;;;;;1.60;1.27;;;16.90;97.50;;;;;;5051958;28;20208;-66
2023/05/20 20:26:24;;;;;;;1.45;1.10;;;16.90;97.50;;;;;;5053462;28;20617;-65
2023/05/20 20:28:51;;;;;;;1.50;1.40;;;16.90;97.50;;;;;;5078057;28;20200;-65
2023/05/20 20:31:18;;;;;;;1.52;1.40;;;16.90;97.60;;;;;;5061597;28;20283;-65
2023/05/20 20:33:46;;;;;;;1.55;1.45;;;16.90;97.60;;;;;;5065527;28;20204;-65
2023/05/20 20:36:13;;;;;;;2.50;1.33;;;16.90;97.60;;;;;;5059599;28;20732;-65
2023/05/20 20:38:45;;;;;;;1.77;1.67;;;16.90;97.70;;;;;;5060149;28;20843;-66
2023/05/20 20:41:14;;;;;;;2.93;1.57;;;16.90;97.70;;;;;;5053008;28;20766;-66
2023/05/20 20:43:44;;;;;;;4.18;2.10;;;16.90;97.70;;;;;;5058060;28;20207;-64
2023/05/20 20:46:13;;;;;;;1.70;1.60;;;16.90;97.70;;;;;;5057731;28;20291;-65
2023/05/20 20:48:44;;;;;;;1.70;1.33;;;16.90;97.70;;;;;;5051532;28;20191;-65
2023/05/20 20:51:12;;;;;;;2.03;1.40;;;16.90;97.70;;;;;;5058299;28;20210;-66
2023/05/20 20:53:41;;;;;;;4.38;2.20;;;16.90;97.80;;;;;;5055523;28;20215;-64
2023/05/20 20:56:08;;;;;;;4.70;2.20;;;16.90;97.80;;;;;;5063728;28;20306;-66
2023/05/20 20:58:36;;;;;;;4.27;1.70;;;16.90;97.90;;;;;;5073463;28;20214;-66
2023/05/20 21:01:05;;;;;;;1.85;1.73;;;16.90;98.00;;;;;;5080105;28;20206;-66
2023/05/20 21:03:33;;;;;;;3.00;1.95;;;16.80;97.90;;;;;;5057940;28;21013;-65
2023/05/20 21:06:01;;;;;;;5.17;1.70;;;16.80;98.00;;;;;;5081398;28;20651;-66
2023/05/20 21:08:29;;;;;;;5.18;1.52;;;16.80;98.10;;;;;;5082121;28;20837;-65
2023/05/20 21:10:58;;;;;;;2.27;1.60;;;16.80;98.10;;;;;;5075835;28;20598;-66
2023/05/20 21:13:26;;;;;;;4.97;1.67;;;16.80;98.20;;;;;;5079606;28;20203;-67
2023/05/20 21:15:53;;;;;;;2.38;1.60;;;16.80;98.20;;;;;;5054760;28;20202;-67
2023/05/20 21:18:24;;;;;;;1.70;1.13;;;16.80;98.20;;;;;;5074306;28;20203;-65
2023/05/20 21:20:53;;;;;;;1.63;1.40;;;16.80;98.30;;;;;;5074595;28;20913;-65
2023/05/20 21:23:21;;;;;;;1.42;1.27;;;16.80;98.70;;;;;;5069893;28;20567;-65
2023/05/20 21:25:49;;;;;;;2.20;0.97;;;16.80;98.50;;;;;;5081555;28;20210;-65
2023/05/20 21:28:16;;;;;;;1.37;1.10;;;16.80;98.50;;;;;;5075950;28;20599;-66
2023/05/20 21:30:44;;;;;;;2.40;1.00;;;16.80;98.60;;;;;;5064901;28;20187;-65
2023/05/20 21:33:11;;;;;;;1.90;1.00;;;16.80;98.70;;;;;;5078510;28;20564;-67
2023/05/20 21:35:40;;;;;;;1.27;1.00;;;16.80;98.80;;;;;;5074730;28;20218;-65
2023/05/20 21:38:07;;;;;;;0.80;0.80;;;16.80;98.80;;;;;;5072694;28;20387;-65
2023/05/20 21:40:34;;;;;;;0.90;0.90;;;16.80;98.90;;;;;;5072677;28;20209;-65
2023/05/20 21:43:02;;;;;;;1.00;0.80;;;16.70;99.00;;;;;;5062113;28;20517;-64
2023/05/20 21:45:29;;;;;;;0.90;0.90;;;16.80;99.10;;;;;;5078103;28;20329;-65
2023/05/20 21:47:56;;;;;;;1.03;0.90;;;16.80;99.20;;;;;;5057439;28;20200;-65
2023/05/20 21:50:23;;;;;;;0.93;0.90;;;16.70;99.20;;;;;;5066450;28;20227;-65
2023/05/20 21:52:52;;;;;;;1.10;0.90;;;16.70;99.30;;;;;;5053925;28;20622;-66
2023/05/20 21:55:22;;;;;;;1.03;0.93;;;16.70;99.40;;;;;;5077324;28;20207;-66
2023/05/20 21:57:49;;;;;;;0.87;0.87;;;16.70;99.50;;;;;;5047744;28;20228;-65
2023/05/20 22:00:17;;;;;;;2.25;1.00;;;16.70;99.50;;;;;;5075076;28;20628;-66
2023/05/20 22:02:44;;;;;;;2.93;0.87;;;16.70;99.60;;;;;;5080701;28;20263;-66